createdAt,value
2022-10-31T00:01:31.311Z,8.10
2022-10-31T00:03:58.039Z,7.80
2022-10-31T00:06:25.376Z,7.78
2022-10-31T00:09:03.417Z,7.90
2022-10-31T00:14:24.744Z,8.32
2022-10-31T00:16:51.355Z,7.18
2022-10-31T00:19:18.055Z,7.22
2022-10-31T00:21:44.667Z,7.82
2022-10-31T00:24:11.846Z,8.10
2022-10-31T00:26:38.495Z,7.72
2022-10-31T00:29:05.129Z,7.03
2022-10-31T00:31:32.244Z,7.30
2022-10-31T00:34:00.502Z,7.50
2022-10-31T00:36:27.198Z,7.43
2022-10-31T00:38:53.822Z,8.15
2022-10-31T00:41:22.133Z,7.22
2022-10-31T00:43:48.773Z,7.32
2022-10-31T00:46:15.561Z,7.47
2022-10-31T00:48:42.815Z,6.57
2022-10-31T00:51:09.738Z,6.43
2022-10-31T00:53:36.726Z,7.82
2022-10-31T00:56:03.618Z,7.35
2022-10-31T00:58:30.328Z,7.32
2022-10-31T01:00:57.317Z,7.57
2022-10-31T01:03:30.102Z,6.47
2022-10-31T01:06:05.702Z,7.50
2022-10-31T01:08:33.698Z,6.72
2022-10-31T01:11:21.195Z,7.60
2022-10-31T01:13:48.487Z,7.38
2022-10-31T01:16:17.416Z,7.35
2022-10-31T01:18:44.605Z,7.25
2022-10-31T01:21:17.134Z,7.28
2022-10-31T01:23:43.988Z,7.53
2022-10-31T01:26:28.086Z,7.15
2022-10-31T01:28:56.883Z,6.88
2022-10-31T01:31:26.273Z,7.43
2022-10-31T01:33:53.359Z,7.53
2022-10-31T01:36:25.878Z,7.90
2022-10-31T01:38:56.182Z,8.10
2022-10-31T01:41:26.246Z,7.63
2022-10-31T01:44:03.812Z,8.40
2022-10-31T01:46:44.327Z,7.85
2022-10-31T01:49:19.433Z,8.05
2022-10-31T01:51:55.075Z,8.77
2022-10-31T01:54:26.787Z,7.70
2022-10-31T01:56:57.002Z,8.23
2022-10-31T01:59:28.808Z,7.82
2022-10-31T02:01:56.191Z,8.18
2022-10-31T02:04:24.888Z,8.45
2022-10-31T02:06:57.276Z,7.95
2022-10-31T02:09:24.756Z,7.15
2022-10-31T02:11:55.229Z,7.70
2022-10-31T02:14:27.296Z,7.75
2022-10-31T02:16:55.511Z,8.43
2022-10-31T02:19:35.180Z,7.95
2022-10-31T02:22:48.911Z,7.55
2022-10-31T02:25:49.289Z,7.97
2022-10-31T02:28:58.722Z,7.45
2022-10-31T02:31:47.306Z,6.93
2022-10-31T02:34:31.242Z,7.95
2022-10-31T02:37:12.907Z,8.23
2022-10-31T02:40:03.867Z,7.95
2022-10-31T02:43:27.423Z,7.80
2022-10-31T02:46:02.853Z,7.72
2022-10-31T02:48:36.096Z,7.82
2022-10-31T02:51:04.990Z,7.18
2022-10-31T02:53:36.168Z,8.32
2022-10-31T02:56:18.212Z,8.60
2022-10-31T02:59:02.721Z,7.88
2022-10-31T03:01:57.500Z,8.32
2022-10-31T03:05:13.673Z,8.80
2022-10-31T03:07:56.708Z,9.23
2022-10-31T03:10:47.646Z,8.55
2022-10-31T03:13:32.978Z,9.68
2022-10-31T03:16:31.669Z,9.18
2022-10-31T03:19:06.819Z,9.02
2022-10-31T03:21:46.845Z,9.40
2022-10-31T03:24:15.551Z,8.13
2022-10-31T03:26:48.568Z,9.75
2022-10-31T03:29:19.559Z,9.90
2022-10-31T03:32:10.278Z,10.25
2022-10-31T03:34:40.637Z,9.63
2022-10-31T03:37:12.284Z,9.73
2022-10-31T03:39:41.571Z,8.70
2022-10-31T03:42:15.688Z,9.07
2022-10-31T03:44:46.046Z,9.80
2022-10-31T03:47:13.089Z,9.55
2022-10-31T03:49:40.395Z,9.13
2022-10-31T03:52:29.359Z,8.90
2022-10-31T03:55:06.369Z,9.25
2022-10-31T03:57:44.360Z,9.35
2022-10-31T04:00:14.169Z,9.20
2022-10-31T04:02:56.528Z,10.07
2022-10-31T04:05:24.847Z,8.82
2022-10-31T04:07:56.488Z,8.88
2022-10-31T04:10:30.065Z,8.98
2022-10-31T04:13:06.213Z,8.50
2022-10-31T04:15:46.700Z,9.20
2022-10-31T04:18:13.516Z,9.45
2022-10-31T04:20:42.150Z,9.32
2022-10-31T04:23:21.063Z,9.25
2022-10-31T04:25:48.798Z,9.07
2022-10-31T04:28:17.106Z,8.85
2022-10-31T04:30:44.051Z,9.55
2022-10-31T04:33:11.333Z,9.60
2022-10-31T04:35:38.789Z,9.60
2022-10-31T04:38:05.508Z,9.30
2022-10-31T04:40:32.264Z,8.82
2022-10-31T04:43:37.286Z,9.00
2022-10-31T04:46:04.318Z,8.65
2022-10-31T04:48:31.380Z,8.57
2022-10-31T04:51:02.107Z,8.68
2022-10-31T04:53:29.515Z,9.27
2022-10-31T04:56:19.181Z,9.60
2022-10-31T04:58:51.892Z,8.82
2022-10-31T05:01:19.787Z,9.18
2022-10-31T05:03:49.188Z,9.45
2022-10-31T05:06:17.460Z,8.32
2022-10-31T05:08:44.080Z,8.35
2022-10-31T05:11:12.069Z,8.10
2022-10-31T05:13:39.522Z,8.73
2022-10-31T05:16:26.179Z,8.23
2022-10-31T05:18:55.845Z,9.18
2022-10-31T05:22:00.545Z,7.68
2022-10-31T05:24:27.229Z,8.35
2022-10-31T05:26:53.887Z,8.25
2022-10-31T05:29:20.505Z,8.32
2022-10-31T05:31:48.239Z,8.57
2022-10-31T05:34:35.183Z,7.68
2022-10-31T05:37:16.273Z,7.45
2022-10-31T05:39:42.913Z,7.47
2022-10-31T05:42:14.387Z,7.78
2022-10-31T05:44:41.927Z,7.22
2022-10-31T05:47:16.582Z,6.47
2022-10-31T05:50:02.017Z,7.15
2022-10-31T05:52:35.129Z,7.32
2022-10-31T05:55:09.504Z,6.72
2022-10-31T05:57:37.409Z,7.30
2022-10-31T06:00:05.911Z,6.93
2022-10-31T06:02:35.425Z,7.40
2022-10-31T06:05:19.888Z,6.93
2022-10-31T06:07:46.815Z,6.90
2022-10-31T06:10:13.549Z,6.78
2022-10-31T06:12:41.578Z,6.95
2022-10-31T06:15:24.340Z,6.93
2022-10-31T06:18:00.007Z,6.72
2022-10-31T06:20:27.833Z,6.72
2022-10-31T06:23:02.842Z,6.82
2022-10-31T06:25:31.984Z,7.07
2022-10-31T06:27:58.823Z,7.50
2022-10-31T06:30:33.573Z,7.07
2022-10-31T06:33:05.969Z,7.10
2022-10-31T06:35:35.701Z,7.65
2022-10-31T06:38:02.787Z,6.40
2022-10-31T06:40:42.179Z,7.53
2022-10-31T06:43:22.072Z,8.65
2022-10-31T06:45:50.255Z,8.50
2022-10-31T06:48:32.627Z,8.05
2022-10-31T06:51:28.688Z,8.68
2022-10-31T06:53:55.327Z,7.75
2022-10-31T06:56:23.323Z,8.57
2022-10-31T06:58:55.344Z,8.20
2022-10-31T07:01:42.013Z,9.52
2022-10-31T07:04:11.279Z,8.63
2022-10-31T07:06:38.427Z,8.80
2022-10-31T07:09:05.236Z,9.07
2022-10-31T07:11:31.884Z,10.30
2022-10-31T07:13:59.689Z,9.70
2022-10-31T07:16:27.394Z,9.98
2022-10-31T07:18:54.238Z,8.63
2022-10-31T07:21:21.483Z,9.93
2022-10-31T07:23:49.690Z,9.10
2022-10-31T07:26:43.216Z,10.65
2022-10-31T07:29:10.346Z,9.57
2022-10-31T07:31:37.949Z,10.48
2022-10-31T07:34:11.502Z,9.43
2022-10-31T07:36:56.941Z,9.93
2022-10-31T07:39:23.635Z,10.32
2022-10-31T07:41:50.399Z,8.93
2022-10-31T07:44:19.468Z,9.60
2022-10-31T07:47:12.368Z,9.07
2022-10-31T07:49:57.432Z,8.98
2022-10-31T07:52:42.818Z,8.88
2022-10-31T07:55:38.986Z,9.43
2022-10-31T07:58:09.963Z,9.10
2022-10-31T08:00:41.145Z,8.85
2022-10-31T08:03:11.346Z,9.02
2022-10-31T08:06:16.017Z,6.88
2022-10-31T08:09:05.651Z,7.03
2022-10-31T08:11:33.065Z,7.55
2022-10-31T08:14:01.510Z,7.05
2022-10-31T08:16:28.210Z,7.28
2022-10-31T08:19:01.425Z,7.05
2022-10-31T08:21:29.780Z,6.03
2022-10-31T08:23:57.593Z,6.50
2022-10-31T08:26:25.281Z,6.75
2022-10-31T08:28:55.486Z,6.43
2022-10-31T08:31:23.749Z,6.20
2022-10-31T08:33:50.383Z,5.97
2022-10-31T08:36:21.398Z,7.18
2022-10-31T08:39:08.629Z,5.75
2022-10-31T08:41:36.112Z,6.38
2022-10-31T08:44:03.459Z,5.60
2022-10-31T08:46:30.129Z,6.40
2022-10-31T08:48:56.774Z,6.10
2022-10-31T08:51:23.934Z,6.20
2022-10-31T08:53:53.786Z,6.07
2022-10-31T08:56:26.470Z,6.18
2022-10-31T08:58:54.546Z,6.38
2022-10-31T09:01:30.761Z,6.28
2022-10-31T09:03:58.236Z,6.57
2022-10-31T09:06:26.009Z,7.10
2022-10-31T09:08:53.971Z,7.25
2022-10-31T09:11:25.573Z,8.27
2022-10-31T09:14:10.537Z,7.75
2022-10-31T09:16:39.885Z,8.10
2022-10-31T09:19:12.819Z,8.45
2022-10-31T09:21:39.459Z,8.43
2022-10-31T09:24:06.890Z,9.35
2022-10-31T09:26:34.582Z,8.82
2022-10-31T09:29:10.314Z,8.75
2022-10-31T09:31:43.725Z,8.48
2022-10-31T09:34:40.665Z,8.50
2022-10-31T09:37:10.910Z,9.25
2022-10-31T09:39:37.755Z,8.55
2022-10-31T09:42:27.864Z,8.90
2022-10-31T09:45:06.343Z,8.85
2022-10-31T09:47:54.672Z,9.05
2022-10-31T09:50:48.466Z,9.05
2022-10-31T09:53:37.627Z,8.55
2022-10-31T09:56:14.957Z,9.35
2022-10-31T09:58:51.560Z,8.57
2022-10-31T10:01:26.862Z,9.00
2022-10-31T10:04:00.324Z,9.50
2022-10-31T10:06:53.361Z,9.65
2022-10-31T10:09:38.666Z,9.45
2022-10-31T10:12:50.103Z,10.25
2022-10-31T10:15:37.606Z,10.05
2022-10-31T10:18:33.667Z,11.15
2022-10-31T10:21:05.853Z,10.43
2022-10-31T10:23:51.527Z,10.23
2022-10-31T10:26:24.468Z,11.13
2022-10-31T10:28:58.479Z,11.25
2022-10-31T10:31:30.000Z,11.18
2022-10-31T10:34:12.663Z,11.35
2022-10-31T10:36:51.133Z,11.55
2022-10-31T10:39:30.680Z,12.68
2022-10-31T10:42:18.580Z,11.45
2022-10-31T10:45:07.687Z,11.50
2022-10-31T10:47:56.073Z,11.48
2022-10-31T10:50:34.657Z,11.50
2022-10-31T10:53:33.356Z,11.60
2022-10-31T10:56:06.153Z,11.57
2022-10-31T10:58:32.813Z,11.60
2022-10-31T11:00:59.595Z,11.48
2022-10-31T11:03:26.252Z,11.95
2022-10-31T11:05:59.343Z,12.27
2022-10-31T11:08:30.698Z,12.43
2022-10-31T11:10:59.203Z,12.40
2022-10-31T11:13:27.340Z,11.57
2022-10-31T11:15:56.586Z,11.57
2022-10-31T11:18:26.998Z,12.20
2022-10-31T11:20:56.351Z,12.65
2022-10-31T11:23:24.914Z,12.88
2022-10-31T11:25:57.567Z,12.13
2022-10-31T11:28:24.716Z,12.35
2022-10-31T11:31:00.427Z,12.27
2022-10-31T11:33:32.669Z,12.30
2022-10-31T11:36:00.923Z,11.98
2022-10-31T11:38:40.329Z,12.02
2022-10-31T11:41:06.917Z,12.40
2022-10-31T11:43:33.590Z,13.15
2022-10-31T11:46:00.869Z,13.18
2022-10-31T11:48:27.523Z,12.48
2022-10-31T11:50:57.562Z,12.70
2022-10-31T11:53:30.229Z,12.77
2022-10-31T11:56:13.886Z,12.65
2022-10-31T11:58:40.823Z,12.88
2022-10-31T12:01:24.922Z,13.65
2022-10-31T12:04:13.339Z,13.32
2022-10-31T12:06:42.971Z,12.73
2022-10-31T12:09:22.025Z,13.10
2022-10-31T12:12:10.357Z,12.55
2022-10-31T12:15:10.785Z,12.77
2022-10-31T12:17:41.817Z,12.73
2022-10-31T12:20:18.059Z,12.23
2022-10-31T12:23:08.731Z,13.43
2022-10-31T12:25:56.678Z,12.65
2022-10-31T12:28:29.405Z,11.02
2022-10-31T12:31:18.660Z,11.10
2022-10-31T12:33:54.380Z,10.50
2022-10-31T12:36:49.377Z,11.55
2022-10-31T12:39:34.568Z,12.15
2022-10-31T12:42:36.670Z,12.18
2022-10-31T12:45:21.382Z,11.50
2022-10-31T12:47:59.912Z,11.75
2022-10-31T12:50:59.301Z,10.65
2022-10-31T12:53:50.605Z,10.52
2022-10-31T12:56:19.995Z,10.75
2022-10-31T12:58:51.560Z,10.85
2022-10-31T13:01:25.124Z,10.15
2022-10-31T13:03:57.835Z,10.95
2022-10-31T13:06:31.444Z,10.07
2022-10-31T13:09:03.113Z,10.95
2022-10-31T13:11:47.522Z,9.23
2022-10-31T13:14:27.161Z,11.32
2022-10-31T13:16:55.822Z,9.98
2022-10-31T13:19:32.444Z,9.68
2022-10-31T13:22:13.016Z,10.35
2022-10-31T13:24:57.889Z,10.63
2022-10-31T13:27:29.065Z,10.00
2022-10-31T13:30:06.887Z,10.35
2022-10-31T13:32:56.048Z,10.35
2022-10-31T13:35:51.885Z,10.07
2022-10-31T13:38:39.853Z,9.25
2022-10-31T13:41:44.229Z,10.98
2022-10-31T13:44:26.838Z,10.15
2022-10-31T13:46:56.280Z,10.20
2022-10-31T13:49:31.846Z,10.43
2022-10-31T13:52:10.531Z,10.82
2022-10-31T13:54:48.666Z,11.80
2022-10-31T13:57:34.575Z,10.93
2022-10-31T14:00:21.542Z,10.90
2022-10-31T14:02:53.832Z,11.48
2022-10-31T14:05:36.194Z,11.93
2022-10-31T14:08:06.892Z,11.35
2022-10-31T14:10:39.113Z,11.60
2022-10-31T14:13:08.610Z,12.80
2022-10-31T14:15:44.401Z,10.90
2022-10-31T14:18:34.401Z,11.15
2022-10-31T14:21:01.201Z,11.98
2022-10-31T14:23:38.722Z,12.55
2022-10-31T14:26:26.541Z,13.00
2022-10-31T14:29:02.267Z,12.70
2022-10-31T14:31:38.192Z,12.07
2022-10-31T14:34:35.397Z,12.27
2022-10-31T14:37:19.476Z,12.57
2022-10-31T14:39:53.107Z,13.20
2022-10-31T14:42:53.335Z,12.98
2022-10-31T14:45:44.072Z,13.18
2022-10-31T14:48:39.072Z,13.02
2022-10-31T14:51:24.016Z,12.73
2022-10-31T14:53:53.618Z,13.65
2022-10-31T14:56:36.753Z,14.35
2022-10-31T14:59:08.583Z,15.40
2022-10-31T15:01:43.529Z,13.93
2022-10-31T15:04:24.238Z,14.07
2022-10-31T15:07:24.491Z,13.10
2022-10-31T15:10:04.282Z,14.60
2022-10-31T15:12:39.778Z,13.82
2022-10-31T15:15:26.814Z,14.60
2022-10-31T15:18:00.584Z,13.25
2022-10-31T15:20:30.558Z,14.48
2022-10-31T15:22:59.436Z,14.80
2022-10-31T15:25:33.031Z,14.30
2022-10-31T15:27:59.944Z,14.80
2022-10-31T15:30:29.160Z,15.85
2022-10-31T15:32:58.520Z,14.27
2022-10-31T15:35:31.123Z,14.57
2022-10-31T15:37:59.776Z,15.63
2022-10-31T15:40:28.836Z,15.30
2022-10-31T15:43:01.929Z,14.68
2022-10-31T15:45:31.026Z,15.40
2022-10-31T15:47:59.640Z,13.05
2022-10-31T15:50:34.548Z,14.50
2022-10-31T15:53:02.131Z,13.82
2022-10-31T15:55:33.183Z,14.90
2022-10-31T15:58:05.142Z,14.65
2022-10-31T16:00:38.270Z,15.45
2022-10-31T16:03:29.655Z,15.57
2022-10-31T16:05:59.207Z,14.85
2022-10-31T16:08:31.953Z,14.75
2022-10-31T16:11:01.910Z,14.18
2022-10-31T16:13:34.117Z,14.40
2022-10-31T16:16:32.799Z,14.23
2022-10-31T16:18:53.483Z,14.15
2022-10-31T16:21:33.288Z,14.57
2022-10-31T16:24:14.223Z,13.73
2022-10-31T16:26:40.978Z,14.57
2022-10-31T16:29:33.121Z,14.52
2022-10-31T16:31:59.759Z,14.63
2022-10-31T16:34:27.216Z,15.48
2022-10-31T16:36:54.158Z,14.07
2022-10-31T16:39:21.269Z,14.50
2022-10-31T16:41:51.882Z,13.40
2022-10-31T16:44:25.591Z,14.25
2022-10-31T16:47:16.304Z,13.32
2022-10-31T16:49:44.220Z,12.25
2022-10-31T16:52:10.958Z,12.25
2022-10-31T16:54:38.078Z,11.07
2022-10-31T16:57:06.431Z,12.05
2022-10-31T16:59:36.692Z,12.38
2022-10-31T17:02:04.570Z,13.20
2022-10-31T17:04:31.354Z,12.65
2022-10-31T17:06:58.012Z,11.98
2022-10-31T17:09:24.646Z,11.23
2022-10-31T17:11:52.456Z,11.35
2022-10-31T17:14:19.461Z,12.10
2022-10-31T17:16:46.093Z,12.55
2022-10-31T17:19:13.302Z,11.90
2022-10-31T17:21:40.616Z,12.15
2022-10-31T17:24:10.939Z,12.63
2022-10-31T17:26:37.561Z,12.52
2022-10-31T17:29:04.206Z,11.48
2022-10-31T17:31:33.036Z,12.23
2022-10-31T17:34:02.566Z,13.05
2022-10-31T17:36:31.435Z,11.60
2022-10-31T17:38:58.163Z,11.80
2022-10-31T17:41:24.788Z,11.20
2022-10-31T17:43:58.570Z,12.45
2022-10-31T17:46:25.632Z,11.93
2022-10-31T17:48:52.240Z,11.20
2022-10-31T17:51:18.881Z,11.43
2022-10-31T17:53:45.550Z,12.23
2022-10-31T17:56:12.249Z,10.70
2022-10-31T17:58:38.927Z,11.90
2022-10-31T18:01:11.212Z,10.90
2022-10-31T18:03:38.692Z,12.32
2022-10-31T18:06:06.120Z,11.60
2022-10-31T18:08:35.304Z,10.38
2022-10-31T18:11:09.878Z,12.13
2022-10-31T18:13:37.608Z,11.63
2022-10-31T18:16:12.453Z,12.50
2022-10-31T18:18:39.813Z,12.27
2022-10-31T18:21:06.583Z,14.57
2022-10-31T18:23:33.538Z,12.75
2022-10-31T18:26:00.157Z,11.93
2022-10-31T18:28:26.854Z,10.55
2022-10-31T18:30:53.510Z,11.15
2022-10-31T18:33:20.163Z,10.93
2022-10-31T18:35:46.783Z,10.95
2022-10-31T18:38:13.411Z,10.50
2022-10-31T18:40:40.021Z,11.63
2022-10-31T18:43:06.660Z,11.65
2022-10-31T18:45:45.915Z,11.15
2022-10-31T18:48:14.517Z,11.40
2022-10-31T18:50:41.428Z,10.90
2022-10-31T18:53:08.452Z,10.68
2022-10-31T18:55:43.780Z,11.05
2022-10-31T18:58:12.500Z,12.13
2022-10-31T19:00:39.103Z,9.70
2022-10-31T19:03:06.570Z,10.77
2022-10-31T19:05:33.228Z,10.75
2022-10-31T19:07:59.861Z,11.07
2022-10-31T19:10:26.527Z,11.02
2022-10-31T19:12:53.157Z,10.77
2022-10-31T19:15:19.805Z,11.27
2022-10-31T19:17:46.556Z,10.13
2022-10-31T19:20:14.064Z,11.07
2022-10-31T19:22:40.657Z,11.18
2022-10-31T19:25:10.471Z,10.98
2022-10-31T19:27:38.335Z,10.30
2022-10-31T19:30:06.549Z,9.60
2022-10-31T19:32:33.629Z,10.88
2022-10-31T19:35:00.366Z,10.27
2022-10-31T19:37:27.081Z,9.65
2022-10-31T19:39:53.756Z,9.15
2022-10-31T19:42:20.643Z,10.07
2022-10-31T19:44:47.232Z,10.25
2022-10-31T19:47:13.821Z,9.70
2022-10-31T19:49:40.407Z,9.25
2022-10-31T19:52:07.111Z,10.63
2022-10-31T19:54:34.234Z,9.77
2022-10-31T19:57:00.847Z,9.60
2022-10-31T19:59:27.532Z,9.82
2022-10-31T20:01:54.211Z,10.45
2022-10-31T20:04:20.914Z,10.40
2022-10-31T20:06:47.564Z,9.90
2022-10-31T20:09:15.075Z,9.77
2022-10-31T20:11:43.466Z,9.90
2022-10-31T20:14:13.382Z,10.13
2022-10-31T20:16:40.224Z,9.73
2022-10-31T20:19:06.857Z,10.35
2022-10-31T20:21:37.609Z,10.35
2022-10-31T20:24:07.057Z,10.75
2022-10-31T20:26:34.629Z,9.60
2022-10-31T20:29:02.096Z,9.95
2022-10-31T20:31:31.771Z,9.38
2022-10-31T20:33:58.562Z,9.23
2022-10-31T20:36:25.636Z,9.73
2022-10-31T20:38:53.214Z,9.52
2022-10-31T20:41:19.899Z,9.18
2022-10-31T20:43:46.835Z,9.55
2022-10-31T20:46:19.565Z,9.48
2022-10-31T20:48:46.793Z,9.27
2022-10-31T20:53:48.990Z,8.32
2022-10-31T20:56:18.219Z,9.30
2022-10-31T20:58:45.322Z,9.30
2022-10-31T21:01:15.364Z,8.60
2022-10-31T21:03:42.716Z,9.18
2022-10-31T21:06:10.144Z,7.88
2022-10-31T21:08:37.209Z,7.88
2022-10-31T21:11:09.905Z,7.97
2022-10-31T21:13:40.682Z,7.97
2022-10-31T21:16:19.992Z,7.70
2022-10-31T21:18:47.725Z,7.25
2022-10-31T21:21:20.138Z,7.47
2022-10-31T21:23:47.136Z,7.75
2022-10-31T21:26:22.481Z,8.57
2022-10-31T21:28:50.396Z,7.68
2022-10-31T21:31:18.099Z,7.30
2022-10-31T21:33:45.690Z,7.88
2022-10-31T21:36:13.209Z,7.25
2022-10-31T21:38:40.452Z,7.70
2022-10-31T21:41:12.425Z,7.18
2022-10-31T21:43:41.039Z,6.97
2022-10-31T21:46:22.523Z,7.20
2022-10-31T21:48:49.542Z,6.55
2022-10-31T21:51:17.363Z,7.10
2022-10-31T21:54:03.049Z,6.57
2022-10-31T21:56:30.298Z,6.60
2022-10-31T21:58:57.036Z,6.03
2022-10-31T22:01:25.724Z,6.70
2022-10-31T22:03:52.901Z,5.95
2022-10-31T22:06:20.235Z,5.78
2022-10-31T22:08:47.531Z,6.05
2022-10-31T22:11:17.147Z,6.57
2022-10-31T22:13:46.042Z,5.97
2022-10-31T22:16:15.485Z,6.05
2022-10-31T22:18:43.213Z,6.68
2022-10-31T22:21:12.500Z,6.50
2022-10-31T22:23:39.622Z,5.70
2022-10-31T22:26:14.298Z,6.70
2022-10-31T22:28:42.878Z,6.47
2022-10-31T22:33:45.217Z,6.20
2022-10-31T22:36:15.223Z,5.70
2022-10-31T22:38:42.687Z,6.32
2022-10-31T22:41:21.830Z,5.50
2022-10-31T22:43:49.619Z,6.10
2022-10-31T22:46:25.676Z,6.03
2022-10-31T22:48:59.128Z,6.03
2022-10-31T22:51:28.182Z,5.35
2022-10-31T22:53:58.703Z,5.25
2022-10-31T22:56:31.330Z,5.45
2022-10-31T22:58:58.947Z,5.45
2022-10-31T23:01:35.630Z,5.80
2022-10-31T23:04:02.786Z,6.13
2022-10-31T23:06:31.577Z,5.47
2022-10-31T23:09:00.823Z,5.70
2022-10-31T23:11:35.571Z,5.38
2022-10-31T23:14:10.697Z,5.90
2022-10-31T23:16:42.302Z,5.95
2022-10-31T23:19:10.747Z,5.63
2022-10-31T23:21:54.793Z,5.90
2022-10-31T23:24:26.969Z,4.95
2022-10-31T23:27:10.751Z,5.65
2022-10-31T23:29:47.700Z,5.25
2022-10-31T23:32:25.263Z,5.53
2022-10-31T23:34:57.180Z,5.47
2022-10-31T23:37:28.660Z,6.32
2022-10-31T23:39:56.486Z,6.22
2022-10-31T23:42:23.983Z,5.28
2022-10-31T23:44:51.074Z,5.57
2022-10-31T23:47:18.700Z,5.18
2022-10-31T23:49:45.526Z,4.68
2022-10-31T23:52:12.446Z,5.22
2022-10-31T23:54:39.638Z,5.28
2022-10-31T23:57:06.324Z,5.53
2022-10-31T23:59:33.237Z,5.22
